Time;durP1;ratioP1;P1;durP2;ratioP2;P2;SDS_P1;SDS_P2;PMS_P1;PMS_P2;Temp;Humidity;BMP_temperature;BMP_pressure;BME280_temperature;BME280_humidity;BME280_pressure;Samples;Min_cycle;Max_cycle;Signal;HPM_P1;HPM_P2
2021/09/11 00:00:59;;;;;;;15.98;7.60;;;461.20;2380.80;;;;;;5040860;28;20074;-79
2021/09/11 00:03:25;;;;;;;13.20;8.15;;;461.20;2380.80;;;;;;5026112;28;20028;-80
2021/09/11 00:05:51;;;;;;;14.13;7.75;;;461.20;2380.80;;;;;;5024288;28;20033;-79
2021/09/11 00:08:17;;;;;;;13.48;7.88;;;461.20;2380.80;;;;;;5039784;28;20568;-78
2021/09/11 00:10:42;;;;;;;14.05;8.60;;;461.10;2380.80;;;;;;5019263;28;20072;-80
2021/09/11 00:13:08;;;;;;;20.77;7.78;;;461.10;2380.80;;;;;;5043321;28;20034;-79
2021/09/11 00:15:34;;;;;;;11.57;7.47;;;461.10;2380.80;;;;;;5026209;28;20052;-77
2021/09/11 00:18:02;;;;;;;14.80;8.30;;;461.10;2380.80;;;;;;5024205;28;20024;-76
2021/09/11 00:20:29;;;;;;;14.35;7.72;;;461.10;2380.80;;;;;;5034166;28;20017;-77
2021/09/11 00:22:56;;;;;;;17.80;7.90;;;461.10;2380.80;;;;;;5051668;28;20049;-78
2021/09/11 00:25:22;;;;;;;11.95;6.97;;;461.10;2380.80;;;;;;5052070;28;20036;-78
2021/09/11 00:27:48;;;;;;;16.80;7.63;;;461.10;2380.80;;;;;;5031272;28;20048;-78
2021/09/11 00:30:14;;;;;;;13.63;7.82;;;461.00;2380.80;;;;;;5030994;28;20022;-78
2021/09/11 00:32:43;;;;;;;13.98;8.05;;;461.00;2380.80;;;;;;5048090;28;20024;-78
2021/09/11 00:35:18;;;;;;;13.35;8.13;;;460.90;2380.80;;;;;;5030249;28;21395;-78
2021/09/11 00:37:44;;;;;;;10.60;7.17;;;460.90;2380.80;;;;;;5018650;28;20024;-78
2021/09/11 00:40:12;;;;;;;12.23;7.00;;;460.80;2380.80;;;;;;5039457;28;20284;-78
2021/09/11 00:42:40;;;;;;;14.85;8.68;;;460.80;2380.80;;;;;;5051582;28;20029;-76
2021/09/11 00:45:07;;;;;;;13.30;7.40;;;460.80;2380.80;;;;;;5031210;28;20017;-76
2021/09/11 00:47:32;;;;;;;19.30;7.88;;;460.80;2380.80;;;;;;5021849;28;20029;-77
2021/09/11 00:49:58;;;;;;;16.00;8.10;;;460.80;2380.80;;;;;;5045866;28;20030;-77
2021/09/11 00:52:24;;;;;;;13.15;8.63;;;460.80;2380.80;;;;;;5013688;28;20049;-76
2021/09/11 00:54:50;;;;;;;18.05;9.13;;;436.10;2355.20;;;;;;5046042;28;20025;-78
2021/09/11 00:57:17;;;;;;;17.98;8.45;;;436.10;2355.20;;;;;;5031451;28;20115;-77
2021/09/11 00:59:42;;;;;;;15.35;7.68;;;436.10;2355.20;;;;;;5028358;28;20055;-77
2021/09/11 01:02:08;;;;;;;10.77;7.70;;;436.10;2355.20;;;;;;5029845;28;20473;-76
2021/09/11 01:04:34;;;;;;;12.63;7.97;;;436.10;2355.20;;;;;;5021436;28;20395;-76
2021/09/11 01:07:00;;;;;;;12.43;8.00;;;436.00;2355.20;;;;;;5028707;28;20033;-76
2021/09/11 01:09:26;;;;;;;13.18;7.45;;;436.00;2355.20;;;;;;5041725;28;20037;-76
2021/09/11 01:11:52;;;;;;;13.70;7.78;;;435.90;2355.20;;;;;;5017326;28;20040;-77
2021/09/11 01:14:18;;;;;;;11.52;7.47;;;435.90;2355.20;;;;;;5022449;28;20032;-77
2021/09/11 01:16:44;;;;;;;14.15;7.43;;;435.90;2355.20;;;;;;5037607;28;20022;-78
2021/09/11 01:19:10;;;;;;;19.25;8.48;;;435.80;2355.20;;;;;;5033468;28;20386;-76
2021/09/11 01:21:36;;;;;;;17.63;8.00;;;435.80;2355.20;;;;;;5030030;28;20048;-76
2021/09/11 01:24:01;;;;;;;23.30;9.98;;;435.80;2355.20;;;;;;5033335;28;20107;-77
2021/09/11 01:26:27;;;;;;;22.30;11.05;;;435.70;2355.20;;;;;;5023231;28;20438;-76
2021/09/11 01:28:53;;;;;;;28.55;11.05;;;435.70;2355.20;;;;;;5049993;28;20036;-77
2021/09/11 01:31:19;;;;;;;22.05;11.05;;;435.70;2355.20;;;;;;5028486;28;20022;-76
2021/09/11 01:33:45;;;;;;;28.27;11.18;;;435.70;2355.20;;;;;;5012767;28;20048;-76
2021/09/11 01:36:11;;;;;;;27.23;9.73;;;435.70;2355.20;;;;;;5026924;28;20365;-75
2021/09/11 01:38:37;;;;;;;18.17;8.70;;;435.70;2355.20;;;;;;5013190;28;20021;-76
2021/09/11 01:41:02;;;;;;;20.00;9.43;;;435.70;2355.20;;;;;;5044973;28;20763;-76
2021/09/11 01:43:34;;;;;;;19.83;9.52;;;435.70;2355.20;;;;;;5037919;28;20428;-76
2021/09/11 01:46:00;;;;;;;17.88;7.35;;;435.70;2355.20;;;;;;5033154;28;20029;-76
2021/09/11 01:48:29;;;;;;;24.65;9.45;;;435.70;2355.20;;;;;;5033507;28;20040;-76
2021/09/11 01:50:55;;;;;;;17.73;8.63;;;435.70;2355.20;;;;;;5050320;28;20037;-76
2021/09/11 01:53:21;;;;;;;16.25;9.30;;;435.70;2355.20;;;;;;5047338;28;20034;-75
2021/09/11 01:55:47;;;;;;;16.10;8.55;;;435.60;2355.20;;;;;;5023482;28;21120;-76
2021/09/11 01:58:13;;;;;;;13.75;8.13;;;435.60;2355.20;;;;;;5032922;28;20132;-75
2021/09/11 02:00:39;;;;;;;13.57;7.53;;;435.50;2355.20;;;;;;5050825;28;20108;-78
2021/09/11 02:03:06;;;;;;;15.15;8.80;;;435.40;2355.20;;;;;;5050558;28;20033;-76
2021/09/11 02:05:33;;;;;;;17.85;8.68;;;435.40;2355.20;;;;;;5022678;28;20029;-76
2021/09/11 02:07:59;;;;;;;18.80;8.05;;;435.60;2355.20;;;;;;5034563;28;20443;-77
2021/09/11 02:10:24;;;;;;;16.80;8.63;;;435.50;2355.20;;;;;;5034518;28;20017;-78
2021/09/11 02:12:50;;;;;;;12.85;8.13;;;435.50;2355.20;;;;;;5042457;28;20365;-79
2021/09/11 02:15:16;;;;;;;12.48;8.75;;;435.50;2355.20;;;;;;5036230;28;20111;-79
2021/09/11 02:17:42;;;;;;;12.32;8.00;;;435.50;2355.20;;;;;;5033473;28;20044;-79
2021/09/11 02:20:10;;;;;;;13.45;8.35;;;435.40;2355.20;;;;;;5024534;28;20083;-80
2021/09/11 02:22:36;;;;;;;17.33;8.38;;;435.40;2355.20;;;;;;5023228;28;20120;-79
2021/09/11 02:25:02;;;;;;;16.95;8.18;;;435.30;2355.20;;;;;;5035917;28;20456;-79
2021/09/11 02:27:28;;;;;;;12.98;8.88;;;435.30;2355.20;;;;;;5036882;28;20027;-79
2021/09/11 02:29:54;;;;;;;18.80;9.43;;;435.20;2355.20;;;;;;5036515;28;20025;-78
2021/09/11 02:32:19;;;;;;;13.82;8.48;;;435.20;2355.20;;;;;;5036352;28;20105;-79
2021/09/11 02:34:45;;;;;;;14.23;7.78;;;435.20;2355.20;;;;;;5053655;28;20028;-78
2021/09/11 02:37:11;;;;;;;14.93;8.02;;;435.20;2355.20;;;;;;5054530;28;20066;-78
2021/09/11 02:39:38;;;;;;;14.95;8.20;;;435.20;2355.20;;;;;;5022239;28;20124;-77
2021/09/11 02:42:06;;;;;;;16.95;9.13;;;435.20;2355.20;;;;;;5053630;28;20018;-77
2021/09/11 02:44:31;;;;;;;15.68;7.72;;;435.20;2355.20;;;;;;5031111;28;20062;-78
2021/09/11 02:46:57;;;;;;;13.05;8.18;;;410.50;2355.20;;;;;;5048950;28;20096;-78
2021/09/11 02:49:23;;;;;;;16.27;8.15;;;410.50;2355.20;;;;;;5051267;28;20412;-77
2021/09/11 02:51:48;;;;;;;15.32;8.15;;;410.50;2355.20;;;;;;5036497;28;20118;-78
2021/09/11 02:54:14;;;;;;;18.92;9.10;;;410.50;2355.20;;;;;;5052945;28;20499;-78
2021/09/11 02:56:40;;;;;;;19.77;8.98;;;410.40;2355.20;;;;;;5040964;28;20116;-78
2021/09/11 02:59:06;;;;;;;18.30;8.55;;;410.40;2355.20;;;;;;5054209;28;20025;-78
2021/09/11 03:01:31;;;;;;;18.00;9.10;;;410.30;2355.20;;;;;;5035640;28;20035;-77
2021/09/11 03:03:57;;;;;;;13.95;8.90;;;410.30;2355.20;;;;;;5045448;28;20025;-77
2021/09/11 03:06:23;;;;;;;14.13;9.30;;;410.10;2355.20;;;;;;5053142;28;20036;-77
2021/09/11 03:08:48;;;;;;;15.70;8.65;;;410.20;2355.20;;;;;;5032604;28;20021;-77
2021/09/11 03:11:14;;;;;;;14.73;8.63;;;410.20;2355.20;;;;;;5032763;28;20103;-77
2021/09/11 03:13:42;;;;;;;15.85;9.02;;;410.20;2355.20;;;;;;5052294;28;20414;-76
2021/09/11 03:16:09;;;;;;;15.27;10.65;;;410.10;2355.20;;;;;;5047044;28;20021;-77
2021/09/11 03:18:34;;;;;;;19.75;9.77;;;410.00;2355.20;;;;;;5040957;28;20025;-76
2021/09/11 03:21:00;;;;;;;17.75;9.60;;;410.00;2355.20;;;;;;5045315;28;20498;-76
2021/09/11 03:23:26;;;;;;;24.27;9.85;;;410.00;2355.20;;;;;;5053024;28;20045;-78
2021/09/11 03:25:52;;;;;;;12.98;8.52;;;410.00;2355.20;;;;;;5035131;28;20025;-78
2021/09/11 03:28:17;;;;;;;14.57;9.43;;;409.90;2355.20;;;;;;5053249;28;20025;-77
2021/09/11 03:30:43;;;;;;;18.60;9.68;;;409.90;2355.20;;;;;;5032728;28;20033;-78
2021/09/11 03:33:09;;;;;;;20.92;9.38;;;410.00;2355.20;;;;;;5023800;28;20426;-78
2021/09/11 03:35:35;;;;;;;15.73;9.82;;;410.10;2355.20;;;;;;5053439;28;20028;-78
2021/09/11 03:38:01;;;;;;;14.38;8.63;;;410.10;2355.20;;;;;;5052963;28;20468;-80
2021/09/11 03:40:27;;;;;;;17.00;9.10;;;410.10;2355.20;;;;;;5043719;28;20044;-80
2021/09/11 03:42:52;;;;;;;11.95;7.80;;;410.00;2355.20;;;;;;5021074;28;20484;-78
2021/09/11 03:45:18;;;;;;;12.68;8.43;;;410.00;2355.20;;;;;;5052913;28;20803;-77
2021/09/11 03:47:44;;;;;;;16.30;8.85;;;409.90;2355.20;;;;;;5040310;28;20041;-77
2021/09/11 03:50:09;;;;;;;20.10;9.57;;;409.90;2355.20;;;;;;5029416;28;20040;-80
2021/09/11 03:52:35;;;;;;;17.40;8.65;;;409.90;2355.20;;;;;;5023074;28;20549;-80
2021/09/11 03:55:03;;;;;;;20.02;8.90;;;409.80;2355.20;;;;;;5050722;28;20075;-80
2021/09/11 03:57:29;;;;;;;21.30;9.35;;;409.80;2355.20;;;;;;5035039;28;20048;-79
2021/09/11 03:59:55;;;;;;;18.17;8.35;;;409.90;2355.20;;;;;;5052766;28;20056;-80
2021/09/11 04:02:20;;;;;;;19.90;8.70;;;409.80;2355.20;;;;;;5046585;28;20904;-80
2021/09/11 04:04:46;;;;;;;13.75;8.75;;;409.80;2355.20;;;;;;5054202;28;20058;-78
2021/09/11 04:07:12;;;;;;;20.77;10.15;;;409.80;2355.20;;;;;;5031594;28;20253;-78
2021/09/11 04:09:37;;;;;;;15.82;9.82;;;409.90;2355.20;;;;;;5048984;28;20055;-78
2021/09/11 04:12:03;;;;;;;16.10;9.13;;;409.80;2355.20;;;;;;5034334;28;20025;-77
2021/09/11 04:14:29;;;;;;;18.88;10.27;;;409.80;2355.20;;;;;;5052449;28;20025;-77
2021/09/11 04:16:55;;;;;;;17.05;9.48;;;409.70;2355.20;;;;;;5045701;28;20547;-78
2021/09/11 04:19:21;;;;;;;13.20;8.68;;;409.70;2355.20;;;;;;5045107;28;20017;-78
2021/09/11 04:21:46;;;;;;;17.05;9.35;;;409.60;2355.20;;;;;;5034110;28;20059;-79
2021/09/11 04:24:12;;;;;;;14.25;10.50;;;409.60;2355.20;;;;;;5030177;28;20045;-80
2021/09/11 04:26:38;;;;;;;14.32;9.70;;;409.60;2355.20;;;;;;5018906;28;20026;-79
2021/09/11 04:29:04;;;;;;;14.27;10.57;;;409.70;2355.20;;;;;;5050370;28;20039;-79
2021/09/11 04:31:30;;;;;;;17.80;9.25;;;409.80;2355.20;;;;;;5051381;28;20025;-79
2021/09/11 04:33:56;;;;;;;18.42;10.80;;;409.90;2355.20;;;;;;5030922;28;20029;-79
2021/09/11 04:36:22;;;;;;;18.70;10.60;;;409.90;2355.20;;;;;;5029925;28;20495;-79
2021/09/11 04:38:47;;;;;;;20.00;10.07;;;409.90;2355.20;;;;;;5041562;28;20029;-77
2021/09/11 04:41:13;;;;;;;17.42;9.55;;;409.90;2355.20;;;;;;5031725;28;20037;-79
2021/09/11 04:43:39;;;;;;;18.83;10.60;;;409.80;2355.20;;;;;;5042566;28;20060;-82
2021/09/11 04:46:05;;;;;;;18.17;10.52;;;409.90;2355.20;;;;;;5052594;28;20029;-85
2021/09/11 04:48:31;;;;;;;17.98;9.98;;;409.80;2355.20;;;;;;5028558;28;20051;-79
2021/09/11 04:50:56;;;;;;;18.00;9.98;;;409.90;2355.20;;;;;;5047890;28;20036;-80
2021/09/11 04:53:22;;;;;;;16.58;9.52;;;410.00;2355.20;;;;;;5033668;28;20781;-80
2021/09/11 04:55:48;;;;;;;15.45;9.52;;;410.00;2355.20;;;;;;5038372;28;20102;-79
2021/09/11 04:58:14;;;;;;;20.33;10.45;;;410.10;2355.20;;;;;;5031725;28;20025;-80
2021/09/11 05:00:40;;;;;;;16.58;10.18;;;410.10;2355.20;;;;;;5044255;28;20025;-79
2021/09/11 05:03:06;;;;;;;15.52;9.52;;;410.10;2355.20;;;;;;5034717;28;20391;-80
2021/09/11 05:05:32;;;;;;;17.52;10.23;;;410.10;2355.20;;;;;;5041762;28;20029;-79
2021/09/11 05:07:58;;;;;;;24.60;10.10;;;410.10;2355.20;;;;;;5022086;28;20381;-80
2021/09/11 05:10:24;;;;;;;18.65;10.65;;;410.10;2355.20;;;;;;5025063;28;20044;-80
2021/09/11 05:12:51;;;;;;;18.92;9.68;;;410.20;2355.20;;;;;;5023672;28;20025;-80
2021/09/11 05:15:17;;;;;;;15.85;10.05;;;410.20;2355.20;;;;;;5025040;28;20446;-79
2021/09/11 05:17:45;;;;;;;21.55;10.95;;;410.30;2355.20;;;;;;5026919;28;20037;-79
2021/09/11 05:20:12;;;;;;;17.35;11.43;;;410.30;2355.20;;;;;;5021885;28;20044;-78
2021/09/11 05:22:38;;;;;;;18.48;11.23;;;410.30;2355.20;;;;;;5021433;28;20112;-79
2021/09/11 05:25:06;;;;;;;17.60;9.32;;;410.30;2355.20;;;;;;5022800;28;20055;-78
2021/09/11 05:27:32;;;;;;;18.20;10.90;;;410.50;2355.20;;;;;;5022954;28;20490;-80
2021/09/11 05:29:58;;;;;;;15.82;9.93;;;410.40;2355.20;;;;;;5024250;28;20021;-79
2021/09/11 05:32:24;;;;;;;19.55;10.27;;;410.50;2355.20;;;;;;5031789;28;20036;-80
2021/09/11 05:34:50;;;;;;;22.83;10.50;;;435.20;2355.20;;;;;;5051523;28;20029;-78
2021/09/11 05:37:16;;;;;;;21.35;10.77;;;435.20;2355.20;;;;;;5033851;28;20376;-77
2021/09/11 05:39:42;;;;;;;20.83;11.40;;;435.30;2355.20;;;;;;5032844;28;20098;-76
2021/09/11 05:42:07;;;;;;;20.15;11.25;;;435.40;2355.20;;;;;;5037872;28;20049;-76
2021/09/11 05:44:34;;;;;;;19.52;11.13;;;435.50;2355.20;;;;;;5025902;28;20045;-76
2021/09/11 05:47:00;;;;;;;26.45;10.85;;;435.60;2355.20;;;;;;5050809;28;20096;-76
2021/09/11 05:49:26;;;;;;;26.35;12.68;;;435.70;2355.20;;;;;;5053218;28;20112;-77
2021/09/11 05:51:52;;;;;;;22.80;11.82;;;435.80;2355.20;;;;;;5036119;28;20036;-77
2021/09/11 05:54:18;;;;;;;15.50;10.07;;;435.90;2355.20;;;;;;5040192;28;20048;-77
2021/09/11 05:56:44;;;;;;;18.58;11.57;;;435.90;2355.20;;;;;;5034519;28;20041;-78
2021/09/11 05:59:10;;;;;;;18.17;9.27;;;436.00;2355.20;;;;;;5045391;28;20028;-77
2021/09/11 06:01:36;;;;;;;18.02;10.32;;;436.10;2355.20;;;;;;5036563;28;20033;-78
2021/09/11 06:04:02;;;;;;;17.23;10.80;;;460.90;2380.80;;;;;;5033198;28;20082;-77
2021/09/11 06:06:28;;;;;;;21.00;9.98;;;461.00;2380.80;;;;;;5031538;28;20033;-76
2021/09/11 06:08:54;;;;;;;13.90;9.23;;;461.30;2380.80;;;;;;5049376;28;20078;-77
2021/09/11 06:11:20;;;;;;;14.13;8.57;;;461.40;2380.80;;;;;;5052927;28;20055;-77
2021/09/11 06:13:46;;;;;;;17.73;8.68;;;461.50;2380.80;;;;;;5033497;28;20036;-76
2021/09/11 06:16:12;;;;;;;10.98;7.45;;;461.70;2380.80;;;;;;5038037;28;20399;-76
2021/09/11 06:18:38;;;;;;;21.42;8.93;;;486.60;2380.80;;;;;;5029723;28;20112;-76
2021/09/11 06:21:04;;;;;;;13.00;8.45;;;486.80;2380.80;;;;;;5035234;28;20022;-76
2021/09/11 06:23:30;;;;;;;16.23;7.20;;;487.00;2380.80;;;;;;5050057;28;20049;-76
2021/09/11 06:25:55;;;;;;;13.23;8.05;;;487.10;2380.80;;;;;;5048055;28;20511;-76
2021/09/11 06:28:24;;;;;;;14.15;7.72;;;512.00;2380.80;;;;;;5044147;28;20017;-76
2021/09/11 06:30:50;;;;;;;14.75;6.53;;;512.30;2380.80;;;;;;5048651;28;20036;-76
2021/09/11 06:33:16;;;;;;;13.70;6.65;;;512.50;2380.80;;;;;;5040358;28;20108;-77
2021/09/11 06:35:41;;;;;;;14.38;8.07;;;512.80;2380.80;;;;;;5048679;28;20124;-76
2021/09/11 06:38:07;;;;;;;16.67;6.43;;;537.70;2406.40;;;;;;5044176;28;20025;-76
2021/09/11 06:40:33;;;;;;;11.70;6.85;;;538.00;2406.40;;;;;;5022572;28;20396;-76
2021/09/11 06:42:58;;;;;;;14.07;6.30;;;538.20;2406.40;;;;;;5021996;28;20037;-76
2021/09/11 06:45:24;;;;;;;14.00;6.28;;;538.50;2406.40;;;;;;5043228;28;20036;-76
2021/09/11 06:47:50;;;;;;;20.95;6.82;;;563.20;2432.00;;;;;;5044592;28;20033;-77
2021/09/11 06:50:16;;;;;;;15.73;6.30;;;563.40;2432.00;;;;;;5047044;28;20064;-76
2021/09/11 06:52:41;;;;;;;16.05;7.13;;;563.70;2432.00;;;;;;5042141;28;20045;-76
2021/09/11 06:55:08;;;;;;;9.82;6.22;;;563.90;2432.00;;;;;;5048932;28;20467;-77
2021/09/11 06:57:33;;;;;;;15.80;6.75;;;564.00;2432.00;;;;;;5048038;28;20021;-78
2021/09/11 06:59:59;;;;;;;16.38;8.18;;;588.80;2406.40;;;;;;5044629;28;20415;-76
2021/09/11 07:02:25;;;;;;;22.65;6.95;;;588.90;2380.80;;;;;;5028979;28;20537;-77
2021/09/11 07:04:51;;;;;;;14.25;6.80;;;589.20;2329.60;;;;;;5034229;28;20072;-78
2021/09/11 07:07:16;;;;;;;15.55;6.10;;;589.40;2304.00;;;;;;5036599;28;20021;-77
2021/09/11 07:09:42;;;;;;;10.80;6.80;;;589.40;2304.00;;;;;;5039594;28;20050;-77
2021/09/11 07:12:08;;;;;;;12.95;6.70;;;589.70;2278.40;;;;;;5048825;28;20029;-76
2021/09/11 07:14:34;;;;;;;10.82;7.30;;;614.50;2252.80;;;;;;5026740;28;20027;-77
2021/09/11 07:16:59;;;;;;;13.35;6.07;;;614.60;2201.60;;;;;;5048336;28;20100;-77
2021/09/11 07:19:28;;;;;;;11.73;6.85;;;614.70;2150.40;;;;;;5027752;28;20043;-76
2021/09/11 07:21:54;;;;;;;16.65;5.40;;;614.90;2150.40;;;;;;5044890;28;20076;-76
2021/09/11 07:24:20;;;;;;;14.27;7.38;;;614.90;2099.20;;;;;;5026124;28;20057;-76
2021/09/11 07:26:46;;;;;;;16.83;6.32;;;615.10;2048.00;;;;;;5046156;28;20025;-77
2021/09/11 07:29:12;;;;;;;13.75;6.90;;;615.20;2048.00;;;;;;5048867;28;20399;-76
2021/09/11 07:31:37;;;;;;;11.85;7.28;;;640.00;2022.40;;;;;;5020247;28;20033;-76
2021/09/11 07:34:03;;;;;;;19.45;6.47;;;640.50;1996.80;;;;;;5041107;28;20487;-76
2021/09/11 07:36:56;;;;;;;11.63;5.68;;;640.60;1971.20;;;;;;5025000;28;20021;-77
2021/09/11 07:39:22;;;;;;;11.48;5.95;;;640.70;1945.60;;;;;;5025972;28;20022;-78
2021/09/11 07:41:47;;;;;;;9.95;5.72;;;665.70;1945.60;;;;;;5021808;28;20079;-78
2021/09/11 07:44:13;;;;;;;12.63;5.65;;;665.70;1920.00;;;;;;5028696;28;20034;-77
2021/09/11 07:46:39;;;;;;;10.35;5.18;;;666.10;1868.80;;;;;;5034343;28;20040;-77
2021/09/11 07:49:04;;;;;;;18.05;6.85;;;666.30;1868.80;;;;;;5026962;28;20113;-79
2021/09/11 07:51:30;;;;;;;20.65;9.63;;;691.20;1843.20;;;;;;5031557;28;20128;-78
2021/09/11 07:53:56;;;;;;;17.85;11.35;;;691.70;1792.00;;;;;;5034938;28;20108;-78
2021/09/11 07:56:22;;;;;;;17.85;10.95;;;691.80;1740.80;;;;;;5034382;28;20056;-77
2021/09/11 07:58:48;;;;;;;16.05;9.38;;;691.90;1740.80;;;;;;5033675;28;20404;-77
2021/09/11 08:01:14;;;;;;;14.15;9.27;;;692.00;1740.80;;;;;;5017904;28;20030;-78
2021/09/11 08:03:52;;;;;;;14.30;8.45;;;716.90;1766.40;;;;;;5024093;28;20029;-77
2021/09/11 08:06:20;;;;;;;14.13;7.20;;;716.90;1715.20;;;;;;5025207;28;20090;-78
2021/09/11 08:11:42;;;;;;;15.95;7.20;;;717.30;1715.20;;;;;;5039789;28;20036;-77
2021/09/11 08:14:10;;;;;;;13.85;5.75;;;717.70;1664.00;;;;;;5024011;28;20048;-77
2021/09/11 08:16:36;;;;;;;8.45;4.95;;;742.40;1664.00;;;;;;5041835;28;20048;-77
2021/09/11 08:19:02;;;;;;;14.20;5.40;;;742.60;1638.40;;;;;;5040968;28;20064;-77
2021/09/11 08:21:28;;;;;;;14.32;5.80;;;742.70;1638.40;;;;;;5039072;28;20099;-77
2021/09/11 08:23:54;;;;;;;12.23;5.50;;;742.90;1612.80;;;;;;5017946;28;20049;-77
2021/09/11 08:26:20;;;;;;;9.32;5.70;;;743.10;1587.20;;;;;;5018975;28;20039;-77
2021/09/11 08:28:45;;;;;;;11.63;5.97;;;768.00;1536.00;;;;;;5039352;28;20105;-77
2021/09/11 08:31:13;;;;;;;15.43;7.13;;;768.20;1561.60;;;;;;5039257;28;20033;-77
2021/09/11 08:36:54;;;;;;;16.67;6.50;;;768.80;1510.40;;;;;;5041618;28;20079;-77
2021/09/11 08:39:41;;;;;;;12.82;6.57;;;794.10;1484.80;;;;;;5040097;28;20045;-77
2021/09/11 08:42:07;;;;;;;10.95;5.38;;;794.30;1408.00;;;;;;5043468;28;20017;-78
2021/09/11 08:44:32;;;;;;;18.88;7.05;;;819.20;1408.00;;;;;;5039148;28;20914;-78
2021/09/11 08:46:58;;;;;;;9.18;4.85;;;819.40;1382.40;;;;;;5023490;28;20111;-77
2021/09/11 08:49:24;;;;;;;16.58;5.20;;;819.70;1356.80;;;;;;5033413;28;20096;-77
2021/09/11 08:51:51;;;;;;;9.38;5.30;;;819.80;1356.80;;;;;;5052551;28;20040;-77
2021/09/11 08:54:19;;;;;;;7.45;4.90;;;819.90;1305.60;;;;;;5050465;28;20021;-77
2021/09/11 08:56:46;;;;;;;9.50;4.57;;;819.90;1331.20;;;;;;5051032;28;20027;-77
2021/09/11 08:59:14;;;;;;;6.53;4.18;;;844.90;1305.60;;;;;;5023593;28;20023;-77
2021/09/11 09:01:41;;;;;;;11.00;6.60;;;845.00;1305.60;;;;;;5033280;28;20021;-77
2021/09/11 09:04:44;;;;;;;16.88;5.47;;;845.30;1280.00;;;;;;5042809;28;20025;-77
2021/09/11 09:07:10;;;;;;;8.40;4.82;;;845.50;1254.40;;;;;;5050259;28;20032;-77
2021/09/11 09:09:48;;;;;;;13.43;4.90;;;870.40;1254.40;;;;;;5033137;28;20028;-77
2021/09/11 09:12:14;;;;;;;7.00;5.10;;;870.40;1228.80;;;;;;5030585;28;20045;-77
2021/09/11 09:14:57;;;;;;;10.10;4.97;;;870.60;1228.80;;;;;;5040113;28;20087;-77
2021/09/11 09:17:40;;;;;;;11.55;5.32;;;871.10;1203.20;;;;;;5042882;28;20036;-77
2021/09/11 09:20:17;;;;;;;12.43;5.95;;;871.30;1152.00;;;;;;5033249;28;20095;-77
2021/09/11 09:22:46;;;;;;;11.25;5.60;;;896.30;1126.40;;;;;;5050316;28;20040;-78
2021/09/11 09:25:26;;;;;;;12.57;4.68;;;896.70;1100.80;;;;;;5031479;28;20490;-77
2021/09/11 09:27:58;;;;;;;9.80;4.25;;;896.30;1126.40;;;;;;5030662;28;20487;-78
2021/09/11 09:30:52;;;;;;;10.80;5.38;;;896.50;1075.20;;;;;;5038565;28;20033;-78
2021/09/11 09:33:19;;;;;;;9.50;4.30;;;896.50;1075.20;;;;;;5007185;28;20087;-78
2021/09/11 09:35:48;;;;;;;10.52;5.70;;;896.70;1075.20;;;;;;5011240;28;20171;-78
2021/09/11 09:38:17;;;;;;;12.98;7.90;;;921.70;1100.80;;;;;;5016687;28;20071;-78
2021/09/11 09:40:57;;;;;;;9.80;6.07;;;922.10;1100.80;;;;;;5020337;28;20558;-78
2021/09/11 09:43:40;;;;;;;10.82;6.85;;;922.00;1100.80;;;;;;5019874;28;20481;-77
2021/09/11 09:46:14;;;;;;;12.65;4.30;;;921.90;1100.80;;;;;;5025909;28;20435;-78
2021/09/11 09:48:42;;;;;;;10.55;5.75;;;922.00;1075.20;;;;;;5023779;28;20033;-78
2021/09/11 09:51:14;;;;;;;11.25;5.50;;;922.20;1049.60;;;;;;5018538;28;20115;-78
2021/09/11 09:53:41;;;;;;;10.50;4.88;;;947.40;998.40;;;;;;5033440;28;20021;-78
2021/09/11 09:56:08;;;;;;;8.55;3.60;;;922.40;998.40;;;;;;5022819;28;20025;-78
2021/09/11 09:58:35;;;;;;;14.52;10.30;;;922.40;998.40;;;;;;5039534;28;20125;-77
2021/09/11 10:01:01;;;;;;;6.78;4.60;;;947.30;998.40;;;;;;5022162;28;20542;-78
2021/09/11 10:03:48;;;;;;;14.52;5.95;;;948.00;998.40;;;;;;5038653;28;20469;-78
2021/09/11 10:06:28;;;;;;;18.92;5.22;;;972.90;998.40;;;;;;5036919;28;20025;-78
2021/09/11 10:09:07;;;;;;;6.93;4.40;;;948.10;998.40;;;;;;5020787;28;20050;-78
2021/09/11 10:11:37;;;;;;;9.98;5.13;;;948.10;972.80;;;;;;5039363;28;20017;-78
2021/09/11 10:14:33;;;;;;;11.45;4.72;;;973.30;972.80;;;;;;5033113;28;20083;-78
2021/09/11 10:17:04;;;;;;;6.18;3.80;;;947.80;998.40;;;;;;5037333;28;20021;-78
2021/09/11 10:19:42;;;;;;;14.30;6.50;;;947.60;947.20;;;;;;5022456;28;20021;-78
2021/09/11 10:22:28;;;;;;;13.20;6.55;;;947.70;972.80;;;;;;5044979;28;20018;-78
2021/09/11 10:25:02;;;;;;;11.95;7.90;;;973.10;998.40;;;;;;5030791;28;20048;-79
2021/09/11 10:27:36;;;;;;;15.90;6.22;;;998.40;972.80;;;;;;5043728;28;20055;-78
2021/09/11 10:30:16;;;;;;;17.83;11.83;;;998.40;972.80;;;;;;5020498;28;20056;-78
2021/09/11 10:32:49;;;;;;;10.82;5.32;;;998.60;947.20;;;;;;5023222;28;20043;-78
2021/09/11 10:35:23;;;;;;;8.43;5.97;;;998.40;947.20;;;;;;5021885;28;20031;-78
2021/09/11 10:38:01;;;;;;;10.98;5.40;;;998.40;947.20;;;;;;5025641;28;20029;-78
2021/09/11 10:40:43;;;;;;;7.95;4.93;;;973.50;921.60;;;;;;5028152;28;20038;-78
2021/09/11 10:43:28;;;;;;;7.10;4.03;;;973.30;921.60;;;;;;5044009;28;20029;-78
2021/09/11 10:46:08;;;;;;;6.70;4.07;;;998.40;921.60;;;;;;5026400;28;20119;-78
2021/09/11 10:48:39;;;;;;;9.32;4.65;;;998.80;947.20;;;;;;5042072;28;20021;-78
2021/09/11 10:51:27;;;;;;;10.98;4.80;;;998.70;947.20;;;;;;5025339;28;20055;-78
2021/09/11 10:54:04;;;;;;;12.93;5.93;;;998.70;947.20;;;;;;5023547;28;20045;-78
2021/09/11 10:56:48;;;;;;;10.02;3.97;;;998.60;947.20;;;;;;5033229;28;20026;-77
2021/09/11 10:59:23;;;;;;;6.45;4.35;;;998.40;947.20;;;;;;5031704;28;20384;-77
2021/09/11 11:02:11;;;;;;;7.90;4.63;;;998.70;947.20;;;;;;5041540;28;20534;-79
2021/09/11 11:05:03;;;;;;;11.60;5.38;;;998.80;947.20;;;;;;5044215;28;20032;-80
2021/09/11 11:07:33;;;;;;;8.68;4.50;;;998.90;921.60;;;;;;5028723;28;20025;-78
2021/09/11 11:10:04;;;;;;;7.82;4.60;;;998.80;921.60;;;;;;5028263;28;20036;-79
2021/09/11 11:12:45;;;;;;;70.15;32.63;;;998.70;921.60;;;;;;5035458;28;20025;-79
2021/09/11 11:15:23;;;;;;;13.30;7.15;;;999.20;921.60;;;;;;5030806;28;20026;-79
2021/09/11 11:17:50;;;;;;;9.55;5.88;;;998.70;947.20;;;;;;5041087;28;20683;-79
2021/09/11 11:20:23;;;;;;;25.65;11.52;;;998.40;947.20;;;;;;5043908;28;20076;-79
2021/09/11 11:22:50;;;;;;;10.50;5.15;;;998.40;921.60;;;;;;5023553;28;20033;-79
2021/09/11 11:25:32;;;;;;;8.45;5.88;;;998.60;921.60;;;;;;5024048;28;20029;-79
2021/09/11 11:27:59;;;;;;;7.78;4.88;;;998.40;947.20;;;;;;5025392;28;20032;-79
2021/09/11 11:30:44;;;;;;;7.28;5.70;;;998.90;947.20;;;;;;5041537;28;20033;-79
2021/09/11 11:33:13;;;;;;;;;;;998.60;947.20;;;;;;5028547;28;20388;-79
2021/09/11 11:35:41;;;;;;;10.18;4.13;;;973.70;921.60;;;;;;5043413;28;19908;-79
2021/09/11 11:38:07;;;;;;;16.27;6.30;;;998.40;947.20;;;;;;5022787;28;20030;-78
2021/09/11 11:40:33;;;;;;;9.80;5.75;;;998.70;921.60;;;;;;5025781;28;20518;-78
2021/09/11 11:43:21;;;;;;;9.38;5.45;;;973.70;921.60;;;;;;5038822;28;20025;-78
2021/09/11 11:45:47;;;;;;;7.72;3.95;;;;;;;;;;5043513;28;20481;-78
2021/09/11 11:48:13;;;;;;;9.27;4.57;;;999.30;896.00;;;;;;5026990;28;20432;-78
2021/09/11 11:50:42;;;;;;;4.60;3.22;;;998.90;896.00;;;;;;5040017;28;20060;-78
2021/09/11 11:53:13;;;;;;;9.93;3.70;;;1024.10;870.40;;;;;;5023142;28;20033;-78
2021/09/11 11:55:49;;;;;;;8.80;4.97;;;1024.60;870.40;;;;;;5022222;28;20107;-78
2021/09/11 11:58:24;;;;;;;9.48;4.47;;;999.10;896.00;;;;;;5044965;28;20013;-77
2021/09/11 12:01:04;;;;;;;7.32;4.07;;;999.00;896.00;;;;;;5027928;28;20056;-78
2021/09/11 12:03:48;;;;;;;6.85;3.42;;;998.70;896.00;;;;;;5042952;28;20437;-78
2021/09/11 12:06:32;;;;;;;10.30;6.25;;;998.90;896.00;;;;;;5025970;28;20099;-79
2021/09/11 12:09:08;;;;;;;8.20;5.47;;;998.50;947.20;;;;;;5026117;28;20024;-78
2021/09/11 12:11:36;;;;;;;9.73;6.43;;;1024.00;896.00;;;;;;5018958;28;20028;-78
2021/09/11 12:14:08;;;;;;;9.30;4.30;;;1024.10;896.00;;;;;;5023216;28;20077;-78
2021/09/11 12:16:35;;;;;;;5.22;3.30;;;1024.80;870.40;;;;;;5034016;28;20028;-78
2021/09/11 12:19:18;;;;;;;8.15;4.32;;;1024.80;844.80;;;;;;5033616;28;20025;-79
2021/09/11 12:21:45;;;;;;;5.72;3.33;;;1049.60;870.40;;;;;;5057683;28;20387;-80
2021/09/11 12:24:22;;;;;;;7.05;4.30;;;1050.20;844.80;;;;;;5059999;28;20055;-79